Time;durP1;ratioP1;P1;durP2;ratioP2;P2;SDS_P1;SDS_P2;PMS_P1;PMS_P2;Temp;Humidity;BMP_temperature;BMP_pressure;BME280_temperature;BME280_humidity;BME280_pressure;Samples;Min_cycle;Max_cycle;Signal;HPM_P1;HPM_P2
2023/06/07 00:02:23;;;;;;;3.50;2.28;;;19.40;99.90;;;;;;7386111;19;20131;-76
2023/06/07 00:04:49;;;;;;;2.00;1.80;;;19.50;99.90;;;;;;7386050;19;20138;-75
2023/06/07 00:07:15;;;;;;;2.28;1.98;;;19.60;99.90;;;;;;7388930;19;20497;-75
2023/06/07 00:09:41;;;;;;;2.30;2.00;;;19.60;99.90;;;;;;7385107;19;20139;-75
2023/06/07 00:12:07;;;;;;;3.10;2.30;;;19.40;99.90;;;;;;7388482;19;20522;-75
2023/06/07 00:14:33;;;;;;;2.30;2.08;;;19.30;99.90;;;;;;7386102;19;20158;-75
2023/06/07 00:16:59;;;;;;;2.20;2.00;;;18.80;99.90;;;;;;7385381;19;20159;-75
2023/06/07 00:19:25;;;;;;;2.15;1.85;;;18.60;99.90;;;;;;7384928;19;20631;-76
2023/06/07 00:21:51;;;;;;;3.95;2.30;;;18.50;99.90;;;;;;7384375;19;20143;-76
2023/06/07 00:24:18;;;;;;;2.70;2.25;;;18.70;99.90;;;;;;7383371;19;20479;-75
2023/06/07 00:26:44;;;;;;;4.40;2.30;;;18.80;99.90;;;;;;7385882;19;20147;-76
2023/06/07 00:29:10;;;;;;;2.08;1.88;;;18.90;99.90;;;;;;7384136;19;20228;-75
2023/06/07 00:31:36;;;;;;;2.30;1.98;;;19.10;99.90;;;;;;7385823;19;20135;-74
2023/06/07 00:34:03;;;;;;;3.00;2.05;;;19.20;99.90;;;;;;7385804;19;20579;-76
2023/06/07 00:36:29;;;;;;;2.75;2.00;;;19.30;99.90;;;;;;7384596;19;20131;-76
2023/06/07 00:38:55;;;;;;;2.45;1.70;;;19.30;99.90;;;;;;7386030;19;20145;-75
2023/06/07 00:41:21;;;;;;;3.20;2.00;;;19.20;99.90;;;;;;7384731;19;20135;-75
2023/06/07 00:43:48;;;;;;;2.80;2.40;;;19.20;99.90;;;;;;7383014;19;20150;-75
2023/06/07 00:46:18;;;;;;;2.63;2.00;;;19.20;99.90;;;;;;7383991;19;20139;-74
2023/06/07 00:48:47;;;;;;;3.08;2.33;;;19.10;99.90;;;;;;7385826;19;20131;-73
2023/06/07 00:51:13;;;;;;;2.92;2.30;;;19.10;99.90;;;;;;7383717;19;20473;-74
2023/06/07 00:53:39;;;;;;;4.57;2.67;;;19.10;99.90;;;;;;7384695;19;20149;-75
2023/06/07 00:56:06;;;;;;;3.55;2.28;;;19.30;99.90;;;;;;7384335;19;20154;-75
2023/06/07 00:58:38;;;;;;;2.83;2.05;;;19.30;99.90;;;;;;7388317;19;20154;-75
2023/06/07 01:01:05;;;;;;;2.30;2.10;;;19.30;99.90;;;;;;7391001;19;20131;-75
2023/06/07 01:03:34;;;;;;;3.17;2.08;;;19.30;99.90;;;;;;7391491;19;20599;-75
2023/06/07 01:06:03;;;;;;;3.45;2.20;;;19.20;99.90;;;;;;7394278;19;20139;-75
2023/06/07 01:08:33;;;;;;;2.42;2.22;;;19.20;99.90;;;;;;7389647;19;20138;-75
2023/06/07 01:11:00;;;;;;;4.05;2.55;;;19.00;99.90;;;;;;7393850;19;20138;-75
2023/06/07 01:13:27;;;;;;;2.75;2.40;;;19.10;99.90;;;;;;7390207;19;20122;-75
2023/06/07 01:15:53;;;;;;;3.45;2.25;;;19.10;99.90;;;;;;7384742;19;20146;-74
2023/06/07 01:18:19;;;;;;;2.75;2.30;;;19.10;99.90;;;;;;7385777;19;20160;-76
2023/06/07 01:20:53;;;;;;;2.67;2.15;;;19.10;99.90;;;;;;7391425;19;20640;-74
2023/06/07 01:23:34;;;;;;;5.10;2.20;;;19.00;99.90;;;;;;7393422;19;20134;-74
2023/06/07 01:26:01;;;;;;;2.53;2.33;;;19.00;99.90;;;;;;7392776;19;20134;-74
2023/06/07 01:28:33;;;;;;;2.35;2.00;;;18.90;99.90;;;;;;7392350;19;20127;-74
2023/06/07 01:31:00;;;;;;;5.85;2.58;;;18.50;99.90;;;;;;7391813;19;20138;-74
2023/06/07 01:33:28;;;;;;;3.63;2.10;;;18.50;99.90;;;;;;7389311;19;20163;-75
2023/06/07 01:35:55;;;;;;;3.03;2.22;;;18.30;99.90;;;;;;7392617;19;20698;-74
2023/06/07 01:38:22;;;;;;;3.05;2.47;;;18.20;99.90;;;;;;7392605;19;20142;-75
2023/06/07 01:40:50;;;;;;;3.20;2.47;;;18.20;99.90;;;;;;7391816;19;20130;-74
2023/06/07 01:43:16;;;;;;;2.50;2.10;;;18.30;99.90;;;;;;7392244;19;20170;-74
2023/06/07 01:45:44;;;;;;;3.25;2.58;;;18.40;99.90;;;;;;7395013;19;20679;-74
2023/06/07 01:48:11;;;;;;;3.15;2.05;;;18.50;99.90;;;;;;7396962;19;20141;-74
2023/06/07 01:50:52;;;;;;;3.50;2.40;;;18.60;99.90;;;;;;7396288;19;20233;-74
2023/06/07 01:53:17;;;;;;;3.60;2.33;;;18.70;99.90;;;;;;7397639;19;20146;-74
2023/06/07 01:55:43;;;;;;;3.58;2.25;;;18.70;99.90;;;;;;7394083;19;20139;-74
2023/06/07 01:58:21;;;;;;;3.60;2.58;;;18.70;99.90;;;;;;7396001;19;20146;-75
2023/06/07 02:00:53;;;;;;;5.40;2.60;;;18.60;99.90;;;;;;7394294;19;20139;-75
2023/06/07 02:03:45;;;;;;;3.33;2.80;;;18.70;99.90;;;;;;7394075;19;20162;-74
2023/06/07 02:06:16;;;;;;;2.53;2.25;;;18.70;99.90;;;;;;7392751;19;20135;-75
2023/06/07 02:08:48;;;;;;;3.63;2.33;;;18.60;99.90;;;;;;7387606;19;20485;-74
2023/06/07 02:11:16;;;;;;;4.10;2.33;;;18.70;99.90;;;;;;7389858;19;20158;-75
2023/06/07 02:13:43;;;;;;;3.05;2.40;;;18.50;99.90;;;;;;7391258;19;20150;-74
2023/06/07 02:16:10;;;;;;;4.63;2.17;;;18.50;99.90;;;;;;7387693;19;20149;-73
2023/06/07 02:18:40;;;;;;;4.07;2.22;;;18.60;99.90;;;;;;7389956;19;20134;-74
2023/06/07 02:21:06;;;;;;;2.70;2.28;;;18.60;99.90;;;;;;7385499;19;20186;-75
2023/06/07 02:23:32;;;;;;;4.22;2.25;;;18.60;99.90;;;;;;7389810;19;20134;-75
2023/06/07 02:25:58;;;;;;;3.10;2.28;;;18.50;99.90;;;;;;7391504;19;20160;-75
2023/06/07 02:28:24;;;;;;;2.80;2.55;;;18.50;99.90;;;;;;7387867;19;20489;-75
2023/06/07 02:30:51;;;;;;;4.05;2.70;;;18.40;99.90;;;;;;7388664;19;20190;-74
2023/06/07 02:33:21;;;;;;;2.55;2.35;;;18.40;99.90;;;;;;7388612;19;20578;-74
2023/06/07 02:35:47;;;;;;;6.00;2.35;;;17.90;99.90;;;;;;7389098;19;20146;-75
2023/06/07 02:38:13;;;;;;;3.35;2.40;;;17.80;99.90;;;;;;7388121;19;20153;-75
2023/06/07 02:40:39;;;;;;;3.08;2.45;;;17.80;99.90;;;;;;7384034;19;20215;-74
2023/06/07 02:43:05;;;;;;;3.35;2.50;;;17.90;99.90;;;;;;7384273;19;20860;-74
2023/06/07 02:45:31;;;;;;;4.68;2.30;;;18.10;99.90;;;;;;7390178;19;20612;-75
2023/06/07 02:47:57;;;;;;;2.97;2.65;;;18.10;99.90;;;;;;7388517;19;20126;-76
2023/06/07 02:50:22;;;;;;;2.38;2.17;;;18.10;99.90;;;;;;7387400;19;20139;-75
2023/06/07 02:52:53;;;;;;;3.67;2.58;;;18.10;99.90;;;;;;7387538;19;20143;-75
2023/06/07 02:55:20;;;;;;;2.47;2.28;;;18.20;99.90;;;;;;7383058;19;20504;-75
2023/06/07 02:57:46;;;;;;;3.05;2.75;;;18.10;99.90;;;;;;7386738;19;20154;-75
2023/06/07 03:00:12;;;;;;;2.70;2.50;;;18.20;99.90;;;;;;7386156;19;20182;-75
2023/06/07 03:02:38;;;;;;;3.97;2.80;;;18.20;99.90;;;;;;7385636;19;20230;-76
2023/06/07 03:05:05;;;;;;;3.80;2.90;;;18.00;99.90;;;;;;7387931;19;20138;-75
2023/06/07 03:07:32;;;;;;;3.03;2.70;;;17.90;99.90;;;;;;7386768;19;20141;-75
2023/06/07 03:09:58;;;;;;;2.70;2.50;;;17.80;99.90;;;;;;7387089;19;20485;-76
2023/06/07 03:12:24;;;;;;;3.30;2.60;;;17.80;99.90;;;;;;7388917;19;20158;-75
2023/06/07 03:14:50;;;;;;;3.92;2.78;;;17.90;99.90;;;;;;7389105;19;20142;-75
2023/06/07 03:17:17;;;;;;;3.28;2.53;;;17.90;99.90;;;;;;7386773;19;20450;-75
2023/06/07 03:19:43;;;;;;;2.92;2.45;;;17.90;99.90;;;;;;7386673;19;20485;-75
2023/06/07 03:22:09;;;;;;;3.40;2.92;;;17.80;99.90;;;;;;7384932;19;20131;-76
2023/06/07 03:24:38;;;;;;;4.00;2.75;;;17.60;99.90;;;;;;7387879;19;20454;-76
2023/06/07 03:27:06;;;;;;;3.10;2.60;;;17.60;99.90;;;;;;7390118;19;20127;-75
2023/06/07 03:29:31;;;;;;;3.67;2.55;;;17.90;99.90;;;;;;7386557;19;20142;-75
2023/06/07 03:31:57;;;;;;;4.72;2.78;;;18.00;99.90;;;;;;7386457;19;20130;-75
2023/06/07 03:34:26;;;;;;;3.05;2.30;;;18.00;99.90;;;;;;7386899;19;20135;-75
2023/06/07 03:36:51;;;;;;;2.35;2.10;;;18.00;99.90;;;;;;7387157;19;20157;-74
2023/06/07 03:39:17;;;;;;;2.45;2.25;;;18.10;99.90;;;;;;7386978;19;20123;-74
2023/06/07 03:41:43;;;;;;;7.25;3.55;;;18.10;99.90;;;;;;7387009;19;20131;-74
2023/06/07 03:44:08;;;;;;;5.45;2.70;;;18.00;99.90;;;;;;7384891;19;20173;-74
2023/06/07 03:46:34;;;;;;;4.32;2.75;;;17.90;99.90;;;;;;7388310;19;20147;-75
2023/06/07 03:49:01;;;;;;;2.92;2.50;;;18.00;99.90;;;;;;7387406;19;20130;-74
2023/06/07 03:51:28;;;;;;;3.08;2.40;;;18.10;99.90;;;;;;7386741;19;20480;-75
2023/06/07 03:53:54;;;;;;;4.75;2.53;;;18.00;99.90;;;;;;7385440;19;20432;-74
2023/06/07 03:56:20;;;;;;;4.22;2.35;;;18.10;99.90;;;;;;7389642;19;20153;-75
2023/06/07 03:58:47;;;;;;;3.33;2.40;;;18.00;99.90;;;;;;7383580;19;20156;-76
2023/06/07 04:01:16;;;;;;;6.55;2.97;;;18.00;99.90;;;;;;7384557;19;20163;-75
2023/06/07 04:03:45;;;;;;;3.40;2.60;;;18.00;99.90;;;;;;7383378;19;20150;-74
2023/06/07 04:06:10;;;;;;;4.97;2.70;;;18.00;99.90;;;;;;7387032;19;20143;-74
2023/06/07 04:08:39;;;;;;;4.63;3.15;;;17.90;99.90;;;;;;7385081;19;20150;-75
2023/06/07 04:11:06;;;;;;;2.75;2.28;;;17.90;99.90;;;;;;7383757;19;20142;-75
2023/06/07 04:13:32;;;;;;;3.00;2.60;;;17.80;99.90;;;;;;7386468;19;20479;-74
2023/06/07 04:15:57;;;;;;;2.97;2.63;;;17.70;99.90;;;;;;7385594;19;20127;-75
2023/06/07 04:18:23;;;;;;;3.55;3.05;;;17.80;99.90;;;;;;7387126;19;20169;-75
2023/06/07 04:20:49;;;;;;;3.80;2.80;;;17.80;99.90;;;;;;7382510;19;20240;-74
2023/06/07 04:23:15;;;;;;;3.63;3.13;;;17.90;99.90;;;;;;7384735;19;20131;-74
2023/06/07 04:25:41;;;;;;;3.80;3.17;;;17.80;99.90;;;;;;7386540;19;20141;-75
2023/06/07 04:28:10;;;;;;;3.00;2.67;;;17.70;99.90;;;;;;7383744;19;20860;-74
2023/06/07 04:30:36;;;;;;;3.72;3.00;;;17.90;99.90;;;;;;7384239;19;20138;-75
2023/06/07 04:33:10;;;;;;;2.85;2.58;;;17.90;99.90;;;;;;7386632;19;20138;-74
2023/06/07 04:35:36;;;;;;;4.50;3.40;;;18.00;99.90;;;;;;7390006;19;20520;-74
2023/06/07 04:38:02;;;;;;;3.42;3.13;;;18.00;99.90;;;;;;7393232;19;20130;-75
2023/06/07 04:40:29;;;;;;;4.78;3.03;;;18.00;99.90;;;;;;7388351;19;20126;-75
2023/06/07 04:43:08;;;;;;;4.07;3.03;;;18.10;99.90;;;;;;7392492;19;20150;-74
2023/06/07 04:45:40;;;;;;;4.35;3.13;;;18.10;99.90;;;;;;7390608;19;20146;-75
2023/06/07 04:48:11;;;;;;;4.50;3.22;;;18.00;99.90;;;;;;7392171;19;20169;-74
2023/06/07 04:50:41;;;;;;;3.40;3.08;;;18.00;99.90;;;;;;7390504;19;20142;-75
2023/06/07 04:53:10;;;;;;;4.40;3.65;;;18.00;99.90;;;;;;7391788;19;20639;-77
2023/06/07 04:55:37;;;;;;;4.57;3.80;;;18.00;99.90;;;;;;7388729;19;20574;-77
2023/06/07 04:58:05;;;;;;;4.05;2.90;;;18.10;99.90;;;;;;7390674;19;20497;-76
2023/06/07 05:00:32;;;;;;;4.55;3.20;;;18.10;99.90;;;;;;7388816;19;20630;-77
2023/06/07 05:03:08;;;;;;;4.20;3.25;;;18.00;99.90;;;;;;7389289;19;20460;-77
2023/06/07 05:05:35;;;;;;;4.25;3.35;;;17.90;99.90;;;;;;7392125;19;20138;-77
2023/06/07 05:08:01;;;;;;;4.22;3.38;;;18.00;99.90;;;;;;7390077;19;20230;-78
2023/06/07 05:10:27;;;;;;;4.10;3.63;;;18.00;99.90;;;;;;7389539;19;20661;-77
2023/06/07 05:12:53;;;;;;;6.32;3.92;;;18.10;99.90;;;;;;7391310;19;20154;-77
2023/06/07 05:15:21;;;;;;;4.72;3.90;;;18.10;99.90;;;;;;7390214;19;21427;-78
2023/06/07 05:17:48;;;;;;;6.07;3.88;;;18.00;99.90;;;;;;7389895;19;20575;-77
2023/06/07 05:20:16;;;;;;;4.75;3.72;;;18.00;99.90;;;;;;7388501;19;20130;-76
2023/06/07 05:22:43;;;;;;;4.60;3.90;;;17.80;99.90;;;;;;7390262;19;20154;-76
2023/06/07 05:25:11;;;;;;;5.05;4.00;;;17.70;99.90;;;;;;7388694;19;20219;-76
2023/06/07 05:27:37;;;;;;;6.13;4.25;;;17.70;99.90;;;;;;7392026;19;20127;-77
2023/06/07 05:30:07;;;;;;;7.65;4.22;;;17.70;99.90;;;;;;7388163;19;20514;-76
2023/06/07 05:32:33;;;;;;;4.65;4.13;;;17.80;99.90;;;;;;7392632;19;20154;-77
2023/06/07 05:35:01;;;;;;;6.55;5.15;;;17.90;99.90;;;;;;7391423;19;20157;-76
2023/06/07 05:37:28;;;;;;;6.18;4.50;;;18.00;99.90;;;;;;7389309;19;20611;-77
2023/06/07 05:39:53;;;;;;;5.65;4.50;;;18.00;99.90;;;;;;7389032;19;20202;-77
2023/06/07 05:42:19;;;;;;;7.10;4.35;;;18.20;99.90;;;;;;7386045;19;20178;-77
2023/06/07 05:44:46;;;;;;;6.30;4.90;;;18.10;99.90;;;;;;7388069;19;20153;-78
2023/06/07 05:47:14;;;;;;;5.10;4.60;;;18.20;99.90;;;;;;7388803;19;20142;-78
2023/06/07 05:49:39;;;;;;;6.55;4.82;;;18.30;99.90;;;;;;7387213;19;20167;-78
2023/06/07 05:52:06;;;;;;;6.97;5.28;;;18.40;99.90;;;;;;7390105;19;20473;-77
2023/06/07 05:54:31;;;;;;;5.10;4.60;;;18.40;99.90;;;;;;7387552;19;20141;-77
2023/06/07 05:56:57;;;;;;;5.90;4.72;;;18.50;99.90;;;;;;7389429;19;20659;-77
2023/06/07 05:59:23;;;;;;;8.73;5.10;;;18.50;99.90;;;;;;7386984;19;20502;-77
2023/06/07 06:01:49;;;;;;;7.20;4.72;;;18.50;99.90;;;;;;7387757;19;20157;-78
2023/06/07 06:04:16;;;;;;;8.15;4.78;;;18.50;99.90;;;;;;7388920;19;20254;-80
2023/06/07 06:06:43;;;;;;;6.22;4.78;;;18.50;99.90;;;;;;7389528;19;20150;-76
2023/06/07 06:09:09;;;;;;;4.22;3.80;;;18.40;99.90;;;;;;7389388;19;20586;-77
2023/06/07 06:11:35;;;;;;;6.07;3.97;;;18.80;99.90;;;;;;7389336;19;20151;-78
2023/06/07 06:14:01;;;;;;;7.22;4.55;;;19.70;99.90;;;;;;7385598;19;20179;-77
2023/06/07 06:16:27;;;;;;;4.97;4.22;;;20.60;99.90;;;;;;7387697;19;20143;-79
2023/06/07 06:18:53;;;;;;;10.27;4.47;;;20.70;99.90;;;;;;7387825;19;20544;-79
2023/06/07 06:21:19;;;;;;;7.53;4.70;;;21.30;99.90;;;;;;7393104;19;20570;-84
2023/06/07 06:23:45;;;;;;;6.10;3.65;;;22.70;99.90;;;;;;7390678;19;20135;-86
2023/06/07 06:26:11;;;;;;;6.22;4.80;;;23.90;99.90;;;;;;7389854;19;20154;-85
2023/06/07 06:28:37;;;;;;;3.88;3.47;;;24.70;99.90;;;;;;7391238;19;20462;-85
2023/06/07 06:31:03;;;;;;;6.78;3.78;;;25.60;99.90;;;;;;7393033;19;20186;-84
2023/06/07 06:33:29;;;;;;;5.10;3.60;;;25.80;99.90;;;;;;7390256;19;20157;-85
2023/06/07 06:35:55;;;;;;;3.80;3.35;;;26.30;99.90;;;;;;7392579;19;20579;-85
2023/06/07 06:38:21;;;;;;;6.10;4.05;;;26.80;99.50;;;;;;7393430;19;20164;-86
2023/06/07 06:40:47;;;;;;;7.50;3.80;;;26.50;99.60;;;;;;7391152;19;20491;-84
2023/06/07 06:43:12;;;;;;;4.22;3.58;;;26.50;99.60;;;;;;7391440;19;20188;-85
2023/06/07 06:45:41;;;;;;;4.88;3.53;;;27.00;98.70;;;;;;7389584;19;20502;-83
2023/06/07 06:48:07;;;;;;;4.30;3.63;;;27.00;98.20;;;;;;7389656;19;20527;-86
2023/06/07 06:50:32;;;;;;;4.85;3.40;;;26.80;98.60;;;;;;7389958;19;20150;-86
2023/06/07 06:52:58;;;;;;;5.85;3.92;;;26.80;98.20;;;;;;7390115;19;20154;-84
2023/06/07 06:55:24;;;;;;;5.50;3.63;;;26.80;98.50;;;;;;7390710;19;20138;-84
2023/06/07 06:57:50;;;;;;;6.18;3.88;;;27.50;97.40;;;;;;7389145;19;20228;-84
2023/06/07 07:00:16;;;;;;;4.82;3.35;;;27.40;96.90;;;;;;7388986;19;20574;-85
2023/06/07 07:02:42;;;;;;;6.22;5.05;;;27.00;97.50;;;;;;7388947;19;20232;-84
2023/06/07 07:05:09;;;;;;;4.50;3.92;;;26.50;98.10;;;;;;7388153;19;20188;-86
2023/06/07 07:07:35;;;;;;;4.60;3.78;;;25.90;98.80;;;;;;7390220;19;20123;-87
2023/06/07 07:10:01;;;;;;;4.10;3.30;;;25.70;99.50;;;;;;7391054;19;20157;-90
2023/06/07 07:12:27;;;;;;;8.75;5.50;;;26.30;98.80;;;;;;7392089;19;20135;-89
2023/06/07 07:14:53;;;;;;;6.38;5.15;;;27.10;97.70;;;;;;7390601;19;20142;-90
2023/06/07 07:17:23;;;;;;;8.63;4.80;;;27.50;97.00;;;;;;7387572;19;20142;-88
2023/06/07 07:19:53;;;;;;;5.28;3.55;;;27.80;96.50;;;;;;7392176;19;20205;-88
2023/06/07 07:22:19;;;;;;;5.18;3.58;;;28.00;95.90;;;;;;7395516;19;20456;-89
2023/06/07 07:24:48;;;;;;;4.07;2.80;;;27.50;96.30;;;;;;7391457;19;20182;-85
2023/06/07 07:27:14;;;;;;;4.55;3.20;;;27.10;96.60;;;;;;7389766;19;20148;-86
2023/06/07 07:29:39;;;;;;;3.08;2.45;;;26.60;97.30;;;;;;7388814;19;20189;-85
2023/06/07 07:32:06;;;;;;;2.30;2.10;;;26.30;98.20;;;;;;7389646;19;20142;-86
2023/06/07 07:34:32;;;;;;;2.85;2.15;;;25.70;98.70;;;;;;7389613;19;20177;-84
2023/06/07 07:37:02;;;;;;;2.42;2.20;;;25.90;98.70;;;;;;7388048;19;20138;-84
2023/06/07 07:39:28;;;;;;;3.00;2.20;;;25.70;98.90;;;;;;7390110;19;20138;-87
2023/06/07 07:41:55;;;;;;;2.85;2.30;;;25.30;99.40;;;;;;7387445;19;20135;-85
2023/06/07 07:44:20;;;;;;;4.40;2.25;;;25.30;99.70;;;;;;7389223;19;20193;-86
2023/06/07 07:46:46;;;;;;;3.28;2.80;;;25.20;99.80;;;;;;7387805;19;20581;-84
2023/06/07 07:49:19;;;;;;;2.50;2.30;;;24.70;99.90;;;;;;7387794;19;20135;-83
2023/06/07 07:51:45;;;;;;;2.20;2.00;;;25.50;99.90;;;;;;7387165;19;20150;-84
2023/06/07 07:54:12;;;;;;;3.92;2.30;;;26.00;99.30;;;;;;7388173;19;20255;-85
2023/06/07 07:56:41;;;;;;;2.50;2.30;;;25.90;99.10;;;;;;7388271;19;20170;-82
2023/06/07 07:59:12;;;;;;;3.88;2.45;;;26.00;99.30;;;;;;7390437;19;20157;-85
2023/06/07 08:01:38;;;;;;;3.65;2.10;;;26.30;98.80;;;;;;7388560;19;20130;-88
2023/06/07 08:04:04;;;;;;;2.35;2.15;;;25.90;98.90;;;;;;7393434;19;20238;-91
2023/06/07 08:06:32;;;;;;;2.95;2.50;;;25.90;99.20;;;;;;7396085;19;20800;-88
2023/06/07 08:08:58;;;;;;;2.90;2.50;;;25.50;99.60;;;;;;7401125;19;20673;-86
2023/06/07 08:11:25;;;;;;;2.20;2.00;;;25.50;99.70;;;;;;7399011;19;20138;-87
2023/06/07 08:13:51;;;;;;;2.17;1.90;;;25.70;99.40;;;;;;7400699;19;20122;-87
2023/06/07 08:16:16;;;;;;;3.92;2.10;;;25.50;99.60;;;;;;7400928;19;20182;-86
2023/06/07 08:18:44;;;;;;;2.88;2.25;;;25.40;99.80;;;;;;7397158;19;20138;-84
2023/06/07 08:21:13;;;;;;;3.17;2.00;;;25.50;99.70;;;;;;7397037;19;20126;-92
2023/06/07 08:23:38;;;;;;;1.83;1.60;;;25.50;98.90;;;;;;7398332;19;20895;-86
2023/06/07 08:26:04;;;;;;;3.85;1.83;;;25.30;98.80;;;;;;7399880;19;20577;-85
2023/06/07 08:28:30;;;;;;;2.40;1.63;;;25.50;99.00;;;;;;7399776;19;20251;-83
2023/06/07 08:30:56;;;;;;;1.40;1.30;;;25.90;98.60;;;;;;7406321;19;20154;-87
2023/06/07 08:33:22;;;;;;;2.55;1.40;;;26.30;97.70;;;;;;7416067;19;20134;-85
2023/06/07 08:35:47;;;;;;;2.33;2.13;;;26.50;97.60;;;;;;7420532;19;20147;-90
2023/06/07 08:38:14;;;;;;;4.13;1.75;;;26.40;97.50;;;;;;7419063;19;20153;-89
2023/06/07 08:40:40;;;;;;;2.55;1.63;;;26.50;97.60;;;;;;7423983;19;20145;-89
2023/06/07 08:43:07;;;;;;;2.45;1.50;;;26.70;96.80;;;;;;7426709;19;20166;-91
2023/06/07 08:45:33;;;;;;;1.80;1.60;;;26.50;96.80;;;;;;7427450;19;20142;-91
2023/06/07 08:48:06;;;;;;;1.95;1.50;;;26.40;96.50;;;;;;7426987;19;20134;-89
2023/06/07 08:50:33;;;;;;;2.17;1.48;;;26.00;96.60;;;;;;7423451;19;20138;-88
2023/06/07 08:53:07;;;;;;;1.75;1.60;;;25.50;97.40;;;;;;7407966;19;20145;-90
2023/06/07 08:55:34;;;;;;;3.17;1.73;;;25.50;98.10;;;;;;7406818;19;20501;-88
2023/06/07 08:58:01;;;;;;;3.03;1.85;;;25.70;97.40;;;;;;7408885;19;20147;-89
2023/06/07 09:00:32;;;;;;;2.50;1.52;;;25.90;97.20;;;;;;7404797;19;20157;-86
2023/06/07 09:02:58;;;;;;;3.00;1.52;;;25.90;97.30;;;;;;7404491;19;20403;-86
2023/06/07 09:05:25;;;;;;;1.15;1.05;;;26.00;97.10;;;;;;7406070;19;20663;-89
2023/06/07 09:07:54;;;;;;;2.22;1.83;;;25.90;96.70;;;;;;7405081;19;20151;-86
2023/06/07 09:10:20;;;;;;;2.08;1.67;;;25.70;96.60;;;;;;7402622;19;20161;-86
2023/06/07 09:12:50;;;;;;;2.90;1.67;;;25.70;96.70;;;;;;7400889;19;20135;-85
2023/06/07 09:15:22;;;;;;;1.42;1.20;;;25.40;97.50;;;;;;7413794;19;20155;-92
2023/06/07 09:21:27;;;;;;;1.92;1.40;;;25.00;98.50;;;;;;7395473;19;20165;-86
2023/06/07 09:23:59;;;;;;;1.73;1.35;;;25.10;98.60;;;;;;7395408;19;20217;-90
2023/06/07 09:26:38;;;;;;;1.45;1.23;;;25.20;98.10;;;;;;7400258;19;20163;-88
2023/06/07 09:29:11;;;;;;;2.55;1.30;;;25.40;98.00;;;;;;7399477;19;20143;-88
2023/06/07 09:31:37;;;;;;;2.67;1.33;;;25.60;97.60;;;;;;7394734;19;20150;-88
2023/06/07 09:34:26;;;;;;;1.45;1.10;;;25.60;97.70;;;;;;7398656;19;20139;-90
2023/06/07 09:36:57;;;;;;;1.92;1.23;;;25.20;98.00;;;;;;7399394;19;20141;-87
2023/06/07 09:39:39;;;;;;;1.63;1.10;;;25.00;98.50;;;;;;7394715;19;20135;-86
2023/06/07 09:42:15;;;;;;;1.50;1.40;;;24.90;98.50;;;;;;7391379;19;20186;-86
2023/06/07 09:44:44;;;;;;;1.30;1.20;;;25.00;98.30;;;;;;7396139;19;20178;-86
2023/06/07 09:47:21;;;;;;;1.80;1.25;;;25.00;98.00;;;;;;7392433;19;20134;-79
2023/06/07 09:49:47;;;;;;;1.95;1.10;;;25.20;97.90;;;;;;7396520;19;20609;-81
2023/06/07 09:52:19;;;;;;;1.30;1.20;;;25.30;97.60;;;;;;7389729;19;20138;-81
2023/06/07 09:55:35;;;;;;;2.10;1.20;;;25.10;97.80;;;;;;7391857;19;20287;-84
2023/06/07 09:58:22;;;;;;;1.70;1.30;;;24.90;98.20;;;;;;7392474;19;20630;-76
2023/06/07 10:00:48;;;;;;;1.45;1.35;;;24.60;98.70;;;;;;7390740;19;20566;-78
2023/06/07 10:03:15;;;;;;;1.40;1.20;;;24.10;99.60;;;;;;7386923;19;20221;-76
2023/06/07 10:05:44;;;;;;;1.75;1.35;;;24.00;99.90;;;;;;7388267;19;20138;-77
2023/06/07 10:08:11;;;;;;;1.38;1.25;;;24.20;99.90;;;;;;7389655;19;20154;-77
2023/06/07 10:10:40;;;;;;;1.55;1.20;;;24.40;99.30;;;;;;7390194;19;20165;-78
2023/06/07 10:13:08;;;;;;;1.67;1.08;;;24.40;98.50;;;;;;7387270;19;20134;-78
2023/06/07 10:15:35;;;;;;;1.77;1.50;;;24.70;98.00;;;;;;7388002;19;20493;-77
2023/06/07 10:18:16;;;;;;;3.20;1.10;;;24.80;98.00;;;;;;7387997;19;20476;-78
2023/06/07 10:20:55;;;;;;;1.30;1.08;;;24.70;97.90;;;;;;7387100;19;20682;-74
2023/06/07 10:23:49;;;;;;;3.08;1.40;;;24.70;97.60;;;;;;7387364;19;20131;-76
2023/06/07 10:26:40;;;;;;;1.35;1.10;;;24.70;98.50;;;;;;7387064;19;20607;-76
2023/06/07 10:29:16;;;;;;;2.92;1.27;;;24.70;97.70;;;;;;7387865;19;20167;-77
2023/06/07 10:31:48;;;;;;;1.15;1.05;;;24.80;97.80;;;;;;7384935;19;20134;-76
2023/06/07 10:34:15;;;;;;;1.20;1.10;;;25.10;97.80;;;;;;7389157;19;20139;-76
2023/06/07 10:36:42;;;;;;;2.13;1.48;;;25.10;97.90;;;;;;7387036;19;20595;-77
2023/06/07 10:39:11;;;;;;;1.63;1.30;;;25.00;98.10;;;;;;7386936;19;20206;-80
2023/06/07 10:41:37;;;;;;;7.72;2.17;;;24.60;98.20;;;;;;7386154;19;20850;-79
2023/06/07 10:44:03;;;;;;;2.05;1.50;;;24.20;98.70;;;;;;7389642;19;20151;-84
2023/06/07 10:46:29;;;;;;;3.05;1.38;;;24.00;99.90;;;;;;7388851;19;20139;-83
2023/06/07 10:48:56;;;;;;;2.20;1.20;;;23.80;99.90;;;;;;7389839;19;20160;-84
2023/06/07 10:51:41;;;;;;;1.67;1.58;;;23.90;99.90;;;;;;7391199;19;20782;-84
2023/06/07 10:54:31;;;;;;;2.35;1.60;;;23.70;99.90;;;;;;7389336;19;20504;-84
2023/06/07 10:56:59;;;;;;;4.28;1.42;;;23.80;99.90;;;;;;7388784;19;20221;-84
2023/06/07 10:59:29;;;;;;;1.70;1.20;;;24.00;99.90;;;;;;7383743;19;20147;-86
2023/06/07 11:02:18;;;;;;;1.60;1.13;;;24.10;99.90;;;;;;7387734;19;20138;-84
2023/06/07 11:04:55;;;;;;;1.65;1.10;;;24.30;98.90;;;;;;7388665;19;20281;-83
2023/06/07 11:07:30;;;;;;;1.90;1.40;;;24.50;98.80;;;;;;7390120;19;20130;-82
2023/06/07 11:10:04;;;;;;;1.25;1.15;;;24.70;98.00;;;;;;7386614;19;20137;-83
2023/06/07 11:12:44;;;;;;;1.85;1.60;;;24.60;98.60;;;;;;7390792;19;20130;-84
2023/06/07 11:15:35;;;;;;;1.77;1.30;;;24.50;99.50;;;;;;7390525;19;20152;-85
2023/06/07 11:18:05;;;;;;;1.38;1.27;;;24.60;98.80;;;;;;7397665;19;20554;-83
2023/06/07 11:20:40;;;;;;;1.60;1.27;;;24.70;98.20;;;;;;7393788;19;20142;-82
2023/06/07 11:23:28;;;;;;;1.80;1.13;;;24.60;98.60;;;;;;7388532;19;20198;-84
2023/06/07 11:26:10;;;;;;;1.88;1.05;;;24.50;99.10;;;;;;7388911;19;20145;-84
2023/06/07 11:28:38;;;;;;;3.15;1.25;;;24.30;99.40;;;;;;7388367;19;20175;-80
2023/06/07 11:31:08;;;;;;;6.43;1.50;;;24.40;99.70;;;;;;7389407;19;20130;-81
2023/06/07 11:33:34;;;;;;;3.03;1.48;;;24.60;99.20;;;;;;7392762;19;20457;-82
2023/06/07 11:36:01;;;;;;;1.05;1.00;;;24.60;99.10;;;;;;7388697;19;20138;-80
2023/06/07 11:38:27;;;;;;;1.75;1.30;;;24.60;98.80;;;;;;7389857;19;20147;-79
2023/06/07 11:40:53;;;;;;;1.25;1.15;;;24.50;98.90;;;;;;7384640;19;20157;-82
2023/06/07 11:43:22;;;;;;;2.35;1.65;;;24.50;98.40;;;;;;7381538;19;20603;-80
2023/06/07 11:45:49;;;;;;;2.05;1.50;;;24.50;98.20;;;;;;7373933;19;20228;-83
2023/06/07 11:48:15;;;;;;;1.20;1.00;;;24.40;98.40;;;;;;7384821;19;20134;-81
2023/06/07 11:50:43;;;;;;;1.38;1.27;;;24.40;98.90;;;;;;7386023;19;20142;-81
2023/06/07 11:53:10;;;;;;;1.33;1.23;;;24.40;98.70;;;;;;7386701;19;20146;-81
2023/06/07 11:55:36;;;;;;;2.60;1.92;;;24.50;98.60;;;;;;7387873;19;20170;-82
2023/06/07 11:58:05;;;;;;;1.80;1.70;;;24.60;98.30;;;;;;7386151;19;20158;-82
2023/06/07 12:00:32;;;;;;;1.80;1.70;;;24.60;98.10;;;;;;7391059;19;20138;-79
2023/06/07 12:03:00;;;;;;;2.20;2.00;;;24.70;97.90;;;;;;7386274;19;20142;-80
2023/06/07 12:05:34;;;;;;;1.63;1.40;;;24.90;97.70;;;;;;7385707;19;20186;-79
2023/06/07 12:08:04;;;;;;;2.20;1.08;;;25.00;97.30;;;;;;7385939;19;20138;-82
2023/06/07 12:10:31;;;;;;;2.50;1.50;;;25.00;97.20;;;;;;7386913;19;20154;-83
2023/06/07 12:13:24;;;;;;;1.50;1.27;;;25.20;96.80;;;;;;7385252;19;20159;-80
2023/06/07 12:15:53;;;;;;;1.50;1.40;;;25.10;97.50;;;;;;7383966;19;20256;-84
2023/06/07 12:18:27;;;;;;;1.20;1.10;;;25.10;97.80;;;;;;7386923;19;20154;-84
2023/06/07 12:21:03;;;;;;;1.40;1.23;;;25.10;98.20;;;;;;7385260;19;20489;-85
2023/06/07 12:23:28;;;;;;;2.47;1.23;;;24.80;98.80;;;;;;7389963;19;20153;-84
2023/06/07 12:26:15;;;;;;;2.25;2.05;;;25.00;98.60;;;;;;7389847;19;20130;-82
2023/06/07 12:28:42;;;;;;;1.90;1.75;;;25.20;98.20;;;;;;7384645;19;20139;-80
2023/06/07 12:31:15;;;;;;;1.30;1.20;;;25.40;98.00;;;;;;7383892;19;20206;-81
2023/06/07 12:33:54;;;;;;;1.30;1.20;;;25.40;97.70;;;;;;7386322;19;20222;-80
2023/06/07 12:36:25;;;;;;;1.48;1.20;;;25.40;96.90;;;;;;7384679;19;20180;-83
2023/06/07 12:38:59;;;;;;;1.38;1.20;;;25.30;97.00;;;;;;7390722;19;20499;-79
2023/06/07 12:41:28;;;;;;;1.70;1.20;;;25.30;97.10;;;;;;7383801;19;20524;-76
2023/06/07 12:44:47;;;;;;;;;;;;;;;;;;;;;
2023/06/07 12:47:15;;;;;;;1.50;1.02;;;25.80;96.50;;;;;;7382426;19;21050;-75
2023/06/07 12:49:42;;;;;;;1.20;1.10;;;25.70;96.20;;;;;;7386243;19;20216;-80
2023/06/07 12:52:10;;;;;;;1.10;1.00;;;25.40;96.60;;;;;;7376023;19;20189;-79
2023/06/07 12:54:41;;;;;;;1.20;1.05;;;25.20;97.00;;;;;;7383671;19;20151;-81
2023/06/07 12:57:08;;;;;;;1.30;1.20;;;25.50;96.20;;;;;;7388675;19;20134;-78
2023/06/07 12:59:36;;;;;;;1.52;1.10;;;25.70;95.90;;;;;;7389158;19;20157;-81
2023/06/07 13:02:02;;;;;;;1.40;1.30;;;25.60;95.90;;;;;;7388757;19;20469;-82